Time;durP1;ratioP1;P1;durP2;ratioP2;P2;SDS_P1;SDS_P2;PMS_P1;PMS_P2;Temp;Humidity;BMP_temperature;BMP_pressure;BME280_temperature;BME280_humidity;BME280_pressure;Samples;Min_cycle;Max_cycle;Signal;HPM_P1;HPM_P2
2023/04/16 00:00:37;;;;;;;17.30;5.40;;;;;;;7.91;82.98;102533.66;6099225;19;20077;-76
2023/04/16 00:02:42;;;;;;;16.23;5.47;;;;;;;7.95;83.28;102534.50;6105773;19;20035;-76
2023/04/16 00:04:48;;;;;;;18.45;5.75;;;;;;;7.93;83.33;102547.59;6103120;19;20007;-76
2023/04/16 00:06:53;;;;;;;16.08;5.45;;;;;;;8.00;83.40;102551.06;6101973;19;20457;-76
2023/04/16 00:08:58;;;;;;;22.33;6.25;;;;;;;7.93;83.58;102555.47;6103073;19;20007;-76
2023/04/16 00:11:05;;;;;;;19.80;5.50;;;;;;;7.93;83.31;102554.59;6099925;19;20010;-77
2023/04/16 00:13:10;;;;;;;12.38;4.85;;;;;;;7.95;83.23;102556.31;6104533;19;20035;-77
2023/04/16 00:15:15;;;;;;;12.95;4.68;;;;;;;7.94;83.60;102545.84;6101932;19;20038;-77
2023/04/16 00:17:25;;;;;;;12.43;4.80;;;;;;;7.95;83.01;102542.34;6102579;19;20015;-77
2023/04/16 00:19:30;;;;;;;15.45;5.38;;;;;;;7.82;83.29;102552.88;6103599;19;20335;-77
2023/04/16 00:21:35;;;;;;;14.50;4.80;;;;;;;7.86;83.25;102548.50;6102110;19;20382;-76
2023/04/16 00:23:43;;;;;;;15.05;5.18;;;;;;;7.92;83.39;102556.31;6101738;19;20078;-76
2023/04/16 00:25:48;;;;;;;14.15;4.75;;;;;;;7.87;83.53;102550.22;6103890;19;20014;-76
2023/04/16 00:27:53;;;;;;;12.55;4.50;;;;;;;7.85;83.27;102552.84;6103568;19;20010;-76
2023/04/16 00:29:58;;;;;;;12.38;4.47;;;;;;;7.82;83.03;102555.47;6108549;19;20002;-76
2023/04/16 00:32:03;;;;;;;11.40;4.45;;;;;;;7.81;83.25;102555.47;6108550;19;20014;-76
2023/04/16 00:34:11;;;;;;;19.45;4.70;;;;;;;7.86;83.02;102551.97;6109034;19;20035;-76
2023/04/16 00:36:16;;;;;;;20.25;5.07;;;;;;;7.85;82.95;102545.00;6109241;19;20082;-76
2023/04/16 00:38:23;;;;;;;11.23;3.75;;;;;;;7.87;83.02;102545.88;6111322;19;20031;-78
2023/04/16 00:40:31;;;;;;;18.20;4.60;;;;;;;7.80;83.30;102538.91;6110822;19;20018;-77
2023/04/16 00:42:36;;;;;;;12.07;4.45;;;;;;;7.85;82.94;102531.91;6109369;19;20007;-77
2023/04/16 00:44:45;;;;;;;17.00;4.85;;;;;;;7.81;83.02;102532.78;6108928;19;20014;-68
2023/04/16 00:46:55;;;;;;;;;;;;;;;7.82;83.12;102539.78;6108454;19;20443;-68
2023/04/16 00:49:04;;;;;;;15.68;4.35;;;;;;;7.80;82.71;102532.81;6095931;19;19978;-70
2023/04/16 00:51:13;;;;;;;15.45;3.72;;;;;;;7.86;82.63;102538.88;6104005;19;20081;-68
2023/04/16 00:53:25;;;;;;;14.55;4.93;;;;;;;7.81;83.11;102534.53;6096625;19;20310;-69
2023/04/16 00:55:34;;;;;;;10.63;3.80;;;;;;;7.89;82.74;102530.16;6096325;19;20007;-69
2023/04/16 00:57:40;;;;;;;12.98;4.53;;;;;;;7.90;82.63;102545.88;6102706;19;20019;-69
2023/04/16 00:59:46;;;;;;;18.10;4.05;;;;;;;7.89;82.92;102538.88;6080169;19;20389;-69
2023/04/16 01:01:57;;;;;;;16.83;4.63;;;;;;;7.82;82.84;102541.50;6107024;19;20016;-69
2023/04/16 01:04:08;;;;;;;13.02;4.85;;;;;;;7.83;82.98;102544.13;6106396;19;20106;-67
2023/04/16 01:06:23;;;;;;;12.43;4.60;;;;;;;7.80;83.10;102538.91;6105052;19;20015;-67
2023/04/16 01:08:30;;;;;;;13.43;4.88;;;;;;;7.79;83.37;102542.38;6105202;19;20066;-70
2023/04/16 01:10:35;;;;;;;15.57;5.45;;;;;;;7.82;83.45;102542.41;6099693;19;20006;-68
2023/04/16 01:12:57;;;;;;;15.20;4.22;;;;;;;7.82;83.09;102545.00;6103714;19;20017;-68
2023/04/16 01:15:05;;;;;;;14.90;4.70;;;;;;;7.84;83.39;102545.00;6102589;19;20018;-69
2023/04/16 01:17:11;;;;;;;11.65;4.40;;;;;;;7.84;83.33;102548.47;6104998;19;20025;-68
2023/04/16 01:19:20;;;;;;;18.27;5.50;;;;;;;7.84;83.60;102542.38;6079768;19;20070;-69
2023/04/16 01:21:33;;;;;;;18.25;5.20;;;;;;;7.81;83.52;102543.25;6105324;19;20454;-68
2023/04/16 01:23:41;;;;;;;14.73;3.95;;;;;;;7.78;83.68;102551.13;6083310;19;20010;-68
2023/04/16 01:25:53;;;;;;;12.50;4.35;;;;;;;7.84;83.28;102548.47;6094434;19;20502;-68
2023/04/16 01:28:01;;;;;;;13.00;4.93;;;;;;;7.82;83.58;102551.97;6098088;19;20045;-68
2023/04/16 01:30:11;;;;;;;10.00;4.20;;;;;;;7.83;83.71;102548.50;6099667;19;20401;-68
2023/04/16 01:32:24;;;;;;;20.77;4.75;;;;;;;7.83;83.71;102535.41;6104232;19;20098;-70
2023/04/16 01:34:37;;;;;;;15.70;4.93;;;;;;;7.78;84.12;102540.66;6101839;19;20014;-69
2023/04/16 01:37:07;;;;;;;13.60;4.25;;;;;;;7.81;83.95;102545.88;6104160;19;20007;-68
2023/04/16 01:39:15;;;;;;;19.20;4.07;;;;;;;7.81;83.89;102548.50;6084774;19;20011;-70
2023/04/16 01:41:25;;;;;;;18.52;5.60;;;;;;;7.79;83.86;102547.59;6103098;19;20011;-69
2023/04/16 01:43:34;;;;;;;10.80;3.83;;;;;;;7.79;83.90;102557.22;6104193;19;20037;-68
2023/04/16 01:45:44;;;;;;;11.23;4.25;;;;;;;7.76;83.82;102549.38;6091706;19;20461;-70
2023/04/16 01:47:55;;;;;;;14.90;5.15;;;;;;;7.73;84.16;102550.25;6083757;19;20427;-69
2023/04/16 01:50:04;;;;;;;13.38;4.95;;;;;;;7.79;84.11;102555.47;6097467;19;20010;-69
2023/04/16 01:52:14;;;;;;;13.52;4.55;;;;;;;7.78;83.92;102551.13;6100560;19;20503;-69
2023/04/16 01:54:34;;;;;;;13.85;4.40;;;;;;;7.82;84.03;102557.19;6102884;19;20011;-69
2023/04/16 01:56:48;;;;;;;18.08;5.78;;;;;;;7.79;83.85;102555.47;6106045;19;20015;-69
2023/04/16 01:58:55;;;;;;;21.02;4.90;;;;;;;7.80;83.57;102556.34;6102587;19;20342;-70
2023/04/16 02:01:03;;;;;;;16.52;4.85;;;;;;;7.70;83.88;102553.75;6087030;19;20014;-70
2023/04/16 02:03:23;;;;;;;18.63;4.85;;;;;;;7.70;83.87;102552.88;6103032;19;20677;-69
2023/04/16 02:05:31;;;;;;;11.35;4.53;;;;;;;7.73;83.64;102558.09;6102546;19;20021;-69
2023/04/16 02:07:45;;;;;;;16.63;5.32;;;;;;;7.74;83.78;102564.19;6105405;19;20006;-69
2023/04/16 02:09:56;;;;;;;17.35;4.82;;;;;;;7.66;84.18;102561.59;6104563;19;20440;-69
2023/04/16 02:12:08;;;;;;;14.50;4.30;;;;;;;7.66;83.99;102565.09;6101765;19;20007;-68
2023/04/16 02:14:18;;;;;;;13.68;4.50;;;;;;;7.67;84.23;102558.13;6102350;19;20596;-69
2023/04/16 02:16:26;;;;;;;12.18;4.95;;;;;;;7.61;84.28;102561.59;6103022;19;20021;-76
2023/04/16 02:18:31;;;;;;;14.95;4.75;;;;;;;7.64;84.09;102569.44;6105871;19;20034;-76
2023/04/16 02:20:36;;;;;;;11.38;4.03;;;;;;;7.63;84.44;102565.06;6106615;19;20018;-76
2023/04/16 02:22:45;;;;;;;15.55;5.40;;;;;;;7.57;84.63;102564.22;6106995;19;20010;-76
2023/04/16 02:24:52;;;;;;;18.52;4.60;;;;;;;7.58;84.56;102566.84;6105868;19;20267;-76
2023/04/16 02:26:57;;;;;;;8.93;4.47;;;;;;;7.55;84.93;102574.66;6107344;19;20010;-76
2023/04/16 02:29:02;;;;;;;15.93;5.10;;;;;;;7.57;84.55;102569.44;6103317;19;20015;-76
2023/04/16 02:31:07;;;;;;;16.50;4.72;;;;;;;7.62;84.92;102573.81;6107616;19;20034;-76
2023/04/16 02:33:13;;;;;;;11.32;4.45;;;;;;;7.60;84.91;102566.84;6105681;19;20010;-76
2023/04/16 02:35:18;;;;;;;16.67;4.68;;;;;;;7.60;84.81;102572.06;6106964;19;20006;-76
2023/04/16 02:37:23;;;;;;;14.77;4.20;;;;;;;7.58;84.70;102572.09;6104073;19;20082;-76
2023/04/16 02:39:31;;;;;;;14.32;4.60;;;;;;;7.56;85.09;102573.81;6106267;19;20006;-76
2023/04/16 02:41:37;;;;;;;11.90;4.75;;;;;;;7.51;85.05;102578.19;6103831;19;20553;-76
2023/04/16 02:43:42;;;;;;;12.43;5.05;;;;;;;7.51;85.18;102578.19;6106558;19;20372;-76
2023/04/16 02:45:47;;;;;;;10.98;4.88;;;;;;;7.51;85.68;102575.56;6105750;19;20114;-76
2023/04/16 02:47:55;;;;;;;15.98;4.88;;;;;;;7.53;85.51;102580.78;6105586;19;20018;-75
2023/04/16 02:50:00;;;;;;;11.82;4.32;;;;;;;7.51;85.69;102577.31;6104846;19;20010;-77
2023/04/16 02:52:05;;;;;;;14.15;4.18;;;;;;;7.50;85.68;102581.66;6104111;19;20006;-77
2023/04/16 02:54:10;;;;;;;12.30;4.47;;;;;;;7.44;85.93;102579.03;6104905;19;20054;-76
2023/04/16 02:56:20;;;;;;;11.10;4.47;;;;;;;7.43;86.12;102572.94;6106923;19;20023;-76
2023/04/16 02:58:29;;;;;;;12.13;4.38;;;;;;;7.42;86.01;102579.03;6104566;19;20063;-76
2023/04/16 03:00:34;;;;;;;11.52;3.90;;;;;;;7.39;86.71;102570.31;6108225;19;20466;-77
2023/04/16 03:02:42;;;;;;;14.18;4.95;;;;;;;7.37;86.97;102577.28;6103609;19;20074;-77
2023/04/16 03:04:47;;;;;;;9.90;4.28;;;;;;;7.41;86.99;102566.84;6105314;19;20014;-77
2023/04/16 03:06:52;;;;;;;9.75;3.67;;;;;;;7.41;87.32;102574.69;6103707;19;20051;-77
2023/04/16 03:08:57;;;;;;;12.50;5.22;;;;;;;7.35;87.67;102579.91;6108147;19;20010;-77
2023/04/16 03:11:02;;;;;;;9.30;4.03;;;;;;;7.32;88.01;102577.31;6103951;19;20042;-77
2023/04/16 03:13:09;;;;;;;11.43;4.40;;;;;;;7.31;88.44;102583.38;6104025;19;20015;-77
2023/04/16 03:15:14;;;;;;;13.48;5.30;;;;;;;7.29;88.46;102587.72;6107513;19;20338;-76
2023/04/16 03:17:22;;;;;;;12.52;4.35;;;;;;;7.32;88.72;102585.16;6108154;19;23036;-77
2023/04/16 03:19:27;;;;;;;11.65;4.55;;;;;;;7.29;88.25;102586.88;6106529;19;20038;-77
2023/04/16 03:21:32;;;;;;;11.75;5.25;;;;;;;7.28;89.00;102586.00;6106004;19;20022;-77
2023/04/16 03:23:38;;;;;;;16.13;5.10;;;;;;;7.24;88.97;102586.84;6104026;19;20021;-77
2023/04/16 03:25:45;;;;;;;16.15;4.63;;;;;;;7.24;89.13;102589.47;6105819;19;20035;-77
2023/04/16 03:27:52;;;;;;;11.20;4.78;;;;;;;7.20;89.38;102591.22;6107259;19;20343;-77
2023/04/16 03:30:00;;;;;;;15.48;4.80;;;;;;;7.19;89.62;102593.84;6104763;19;20027;-77
2023/04/16 03:32:05;;;;;;;12.20;4.80;;;;;;;7.21;90.15;102586.84;6102079;19;20011;-77
2023/04/16 03:34:10;;;;;;;12.95;4.57;;;;;;;7.17;90.13;102585.13;6106149;19;20135;-77
2023/04/16 03:36:15;;;;;;;13.18;4.70;;;;;;;7.18;90.63;102590.34;6106329;19;20418;-78
2023/04/16 03:38:22;;;;;;;10.32;4.72;;;;;;;7.15;91.01;102592.09;6103877;19;20002;-69
2023/04/16 03:40:32;;;;;;;9.30;5.10;;;;;;;7.13;91.34;102580.75;6100334;19;20015;-69
2023/04/16 03:42:41;;;;;;;12.77;4.70;;;;;;;7.20;91.21;102585.13;6098796;19;20083;-69
2023/04/16 03:44:56;;;;;;;11.48;4.40;;;;;;;7.19;91.86;102591.22;6077873;19;20021;-69
2023/04/16 03:47:08;;;;;;;15.05;4.95;;;;;;;7.15;92.16;102579.00;6091623;19;20011;-70
2023/04/16 03:49:16;;;;;;;14.07;4.88;;;;;;;7.14;91.55;102583.38;6095656;19;20158;-68
2023/04/16 03:51:22;;;;;;;12.68;4.55;;;;;;;7.17;91.53;102585.13;6099779;19;20033;-69
2023/04/16 03:53:27;;;;;;;13.00;5.03;;;;;;;7.16;91.98;102585.97;6096043;19;20377;-69
2023/04/16 03:55:34;;;;;;;10.13;4.65;;;;;;;7.19;91.46;102589.47;6102279;19;20007;-70
2023/04/16 03:57:41;;;;;;;9.82;4.75;;;;;;;7.23;91.72;102582.50;6102456;19;20078;-68
2023/04/16 03:59:46;;;;;;;11.43;4.78;;;;;;;7.21;91.67;102589.47;6093591;19;20002;-70
2023/04/16 04:01:52;;;;;;;11.43;4.80;;;;;;;7.22;91.61;102586.00;6103552;19;20479;-69
2023/04/16 04:04:00;;;;;;;12.35;4.47;;;;;;;7.21;91.69;102594.69;6100201;19;20011;-68
2023/04/16 04:06:09;;;;;;;10.90;4.72;;;;;;;7.19;92.13;102588.63;6098537;19;20003;-68
2023/04/16 04:08:16;;;;;;;14.45;5.20;;;;;;;7.20;91.86;102582.50;6088637;19;20186;-68
2023/04/16 04:10:27;;;;;;;16.90;5.25;;;;;;;7.19;91.93;102593.84;6079014;19;20011;-68
2023/04/16 04:12:33;;;;;;;11.40;4.63;;;;;;;7.25;91.58;102580.78;6096364;19;20015;-68
2023/04/16 04:14:41;;;;;;;13.40;4.00;;;;;;;7.21;91.88;102584.25;6097315;19;20029;-68
2023/04/16 04:16:48;;;;;;;17.35;6.28;;;;;;;7.26;91.77;102585.13;6099615;19;20418;-70
2023/04/16 04:19:01;;;;;;;7.57;4.07;;;;;;;7.21;91.38;102579.00;6096710;19;20494;-68
2023/04/16 04:21:12;;;;;;;16.92;4.88;;;;;;;7.20;92.10;102585.97;6094638;19;20015;-68
2023/04/16 04:23:20;;;;;;;9.90;3.97;;;;;;;7.23;92.36;102579.88;6093702;19;20746;-69
2023/04/16 04:25:26;;;;;;;14.02;4.93;;;;;;;7.20;92.03;102588.59;6073813;19;20018;-68
2023/04/16 04:27:45;;;;;;;16.10;6.10;;;;;;;7.21;92.44;102592.97;6098109;19;20125;-70
2023/04/16 04:29:51;;;;;;;12.15;4.43;;;;;;;7.26;92.05;102588.59;6096407;19;20010;-69
2023/04/16 04:32:11;;;;;;;12.00;4.95;;;;;;;7.20;92.22;102592.97;6096991;19;20479;-69
2023/04/16 04:34:21;;;;;;;10.90;3.60;;;;;;;7.25;92.36;102591.22;6095751;19;20155;-69
2023/04/16 04:36:29;;;;;;;13.15;3.50;;;;;;;7.26;92.12;102593.81;6097496;19;20037;-69
2023/04/16 04:38:34;;;;;;;10.30;3.78;;;;;;;7.24;92.24;102592.97;6094723;19;20002;-69
2023/04/16 04:40:40;;;;;;;9.55;3.55;;;;;;;7.31;92.55;102603.44;6096307;19;20007;-69
2023/04/16 04:42:52;;;;;;;11.05;4.00;;;;;;;7.23;92.65;102595.56;6095374;19;20106;-71
2023/04/16 04:45:00;;;;;;;13.77;3.95;;;;;;;7.23;92.50;102598.19;6093409;19;20086;-69
2023/04/16 04:47:06;;;;;;;11.88;4.25;;;;;;;7.23;93.45;102606.03;6092514;19;20533;-70
2023/04/16 04:49:11;;;;;;;6.80;3.58;;;;;;;7.25;93.10;102606.91;6096022;19;20011;-69
2023/04/16 04:51:16;;;;;;;10.30;4.47;;;;;;;7.26;93.28;102603.41;6093029;19;20010;-70
2023/04/16 04:53:25;;;;;;;9.68;4.25;;;;;;;7.28;93.27;102604.31;6088383;19;20021;-70
2023/04/16 04:55:32;;;;;;;13.40;4.38;;;;;;;7.25;93.15;102609.53;6090535;19;20028;-70
2023/04/16 04:57:38;;;;;;;10.43;4.20;;;;;;;7.24;93.00;102608.66;6097170;19;20038;-70
2023/04/16 04:59:48;;;;;;;11.35;4.05;;;;;;;7.31;93.19;102604.31;6093848;19;22468;-69
2023/04/16 05:02:05;;;;;;;7.80;4.35;;;;;;;7.35;93.07;102608.69;6071142;19;20023;-69
2023/04/16 05:04:10;;;;;;;9.30;4.10;;;;;;;7.37;92.77;102616.50;6091525;19;20444;-70
2023/04/16 05:06:15;;;;;;;21.35;4.65;;;;;;;7.34;92.37;102612.16;6097104;19;20007;-69
2023/04/16 05:08:28;;;;;;;8.18;3.53;;;;;;;7.35;92.64;102619.16;6096102;19;20011;-70
2023/04/16 05:10:33;;;;;;;15.85;4.82;;;;;;;7.36;92.42;102620.00;6094920;19;20727;-68
2023/04/16 05:12:48;;;;;;;10.90;3.80;;;;;;;7.41;92.46;102619.13;6090568;19;20006;-68
2023/04/16 05:14:55;;;;;;;9.38;4.38;;;;;;;7.44;92.10;102616.53;6101099;19;20069;-68
2023/04/16 05:17:14;;;;;;;10.30;4.38;;;;;;;7.40;92.05;102627.88;6097732;19;20010;-68
2023/04/16 05:19:39;;;;;;;14.80;4.90;;;;;;;7.48;92.57;102618.28;6076015;19;20106;-69
2023/04/16 05:21:44;;;;;;;14.15;4.85;;;;;;;7.41;92.18;102623.50;6101139;19;20398;-69
2023/04/16 05:23:55;;;;;;;15.25;4.60;;;;;;;7.37;92.55;102622.63;6101074;19;20014;-69
2023/04/16 05:26:03;;;;;;;12.93;4.50;;;;;;;7.43;92.62;102621.78;6100480;19;20011;-69
2023/04/16 05:28:08;;;;;;;9.18;4.32;;;;;;;7.39;92.57;102626.09;6095989;19;20010;-72
2023/04/16 05:30:18;;;;;;;10.80;4.38;;;;;;;7.41;92.58;102627.00;6094233;19;20101;-69
2023/04/16 05:32:27;;;;;;;15.32;5.00;;;;;;;7.43;92.63;102629.63;6094244;19;20006;-69
2023/04/16 05:34:32;;;;;;;14.60;5.75;;;;;;;7.44;92.48;102634.84;6101299;19;20010;-69
2023/04/16 05:36:46;;;;;;;14.40;5.40;;;;;;;7.37;92.79;102638.34;6098882;19;20082;-69
2023/04/16 05:39:00;;;;;;;9.45;4.80;;;;;;;7.37;92.45;102635.72;6099174;19;20050;-69
2023/04/16 05:41:06;;;;;;;13.27;5.20;;;;;;;7.42;92.75;102641.78;6102339;19;20006;-69
2023/04/16 05:43:12;;;;;;;13.75;5.07;;;;;;;7.44;92.44;102637.44;6101980;19;20011;-69
2023/04/16 05:45:18;;;;;;;12.13;4.88;;;;;;;7.46;92.59;102633.09;6098030;19;20015;-69
2023/04/16 05:47:27;;;;;;;12.10;5.78;;;;;;;7.43;92.58;102637.47;6082134;19;20022;-69
2023/04/16 05:49:33;;;;;;;11.63;4.80;;;;;;;7.48;92.51;102639.22;6101521;19;20113;-69
2023/04/16 05:51:44;;;;;;;13.95;5.22;;;;;;;7.51;92.57;102637.47;6081335;19;20063;-69
2023/04/16 05:53:51;;;;;;;10.88;5.20;;;;;;;7.45;92.64;102641.81;6095283;19;20079;-69
2023/04/16 05:56:02;;;;;;;12.95;5.18;;;;;;;7.44;92.76;102645.28;6098303;19;19999;-69
2023/04/16 05:58:09;;;;;;;17.33;5.97;;;;;;;7.41;92.77;102645.28;6088109;19;20082;-70
2023/04/16 06:00:18;;;;;;;18.35;6.15;;;;;;;7.44;92.89;102639.19;6079170;19;20462;-68
2023/04/16 06:02:31;;;;;;;16.90;5.88;;;;;;;7.45;93.05;102638.31;6100169;19;20030;-68
2023/04/16 06:04:37;;;;;;;11.32;5.43;;;;;;;7.46;92.57;102638.31;6095539;19;20010;-77
2023/04/16 06:06:42;;;;;;;11.82;5.30;;;;;;;7.51;92.82;102650.56;6104696;19;20074;-77
2023/04/16 06:08:47;;;;;;;14.80;6.30;;;;;;;7.57;92.83;102637.47;6103253;19;20038;-77
2023/04/16 06:10:52;;;;;;;14.50;5.45;;;;;;;7.61;92.76;102654.91;6102266;19;20010;-77
2023/04/16 06:13:00;;;;;;;17.55;5.75;;;;;;;7.59;92.64;102640.97;6105372;19;20351;-77
2023/04/16 06:15:06;;;;;;;13.57;6.18;;;;;;;7.57;92.63;102650.56;6102205;19;19998;-76
2023/04/16 06:17:11;;;;;;;10.75;5.15;;;;;;;7.64;92.37;102653.19;6100927;19;20020;-77
2023/04/16 06:19:16;;;;;;;14.60;6.20;;;;;;;7.59;92.59;102654.06;6102393;19;20629;-78
2023/04/16 06:21:22;;;;;;;21.90;6.78;;;;;;;7.58;92.85;102653.19;6105068;19;20014;-77
2023/04/16 06:23:30;;;;;;;18.73;6.35;;;;;;;7.65;92.72;102659.28;6106470;19;20010;-77
2023/04/16 06:25:35;;;;;;;13.27;6.20;;;;;;;7.63;92.58;102647.94;6105297;19;20039;-77
2023/04/16 06:27:40;;;;;;;12.00;4.75;;;;;;;7.63;93.23;102658.41;6102845;19;20353;-78
2023/04/16 06:29:50;;;;;;;10.63;5.63;;;;;;;7.52;93.47;102658.38;6107711;19;20435;-79
2023/04/16 06:31:55;;;;;;;14.85;5.72;;;;;;;7.54;93.74;102658.41;6109628;19;20589;-78
2023/04/16 06:34:00;;;;;;;16.05;6.15;;;;;;;7.55;94.09;102661.00;6101735;19;20566;-76
2023/04/16 06:36:05;;;;;;;22.45;6.28;;;;;;;7.52;94.01;102667.97;6102274;19;20082;-76
2023/04/16 06:38:10;;;;;;;13.75;6.50;;;;;;;7.50;94.34;102664.50;6104577;19;20010;-77
2023/04/16 06:40:15;;;;;;;16.65;6.32;;;;;;;7.46;95.18;102669.72;6102604;19;20210;-77
2023/04/16 06:42:22;;;;;;;24.73;8.50;;;;;;;7.41;94.85;102671.44;6103797;19;20581;-77
2023/04/16 06:44:27;;;;;;;16.77;6.45;;;;;;;7.40;95.13;102668.84;6103501;19;20424;-75
2023/04/16 06:46:37;;;;;;;15.77;8.68;;;;;;;7.44;95.32;102676.69;6102200;19;20007;-76
2023/04/16 06:48:42;;;;;;;18.98;7.25;;;;;;;7.46;95.72;102679.31;6102356;19;20022;-76
2023/04/16 06:50:47;;;;;;;15.38;6.72;;;;;;;7.40;96.05;102680.19;6101915;19;20088;-75
2023/04/16 06:52:52;;;;;;;18.15;8.73;;;;;;;7.41;95.92;102681.03;6098344;19;20003;-77
2023/04/16 06:54:58;;;;;;;15.98;7.25;;;;;;;7.40;95.65;102680.19;6102784;19;20031;-77
2023/04/16 06:57:03;;;;;;;23.70;9.90;;;;;;;7.40;96.02;102674.09;6101079;19;20007;-76
2023/04/16 06:59:14;;;;;;;20.25;8.45;;;;;;;7.47;95.96;102688.91;6078405;19;20015;-68
2023/04/16 07:01:22;;;;;;;20.20;8.18;;;;;;;7.42;96.05;102683.66;6077588;19;20031;-68
2023/04/16 07:03:32;;;;;;;22.60;8.98;;;;;;;7.40;95.78;102679.31;6089189;19;20015;-68
2023/04/16 07:05:42;;;;;;;20.67;9.68;;;;;;;7.43;96.20;102680.19;6102710;19;20011;-68
2023/04/16 07:07:58;;;;;;;22.35;9.02;;;;;;;7.46;95.96;102682.81;6096482;19;20041;-69
2023/04/16 07:10:11;;;;;;;21.00;8.77;;;;;;;7.48;96.15;102678.44;6097417;19;20018;-69
2023/04/16 07:12:18;;;;;;;26.00;9.05;;;;;;;7.52;95.48;102686.31;6100080;19;20024;-68
2023/04/16 07:14:28;;;;;;;17.80;8.07;;;;;;;7.55;95.74;102683.69;6103848;19;20021;-68
2023/04/16 07:16:37;;;;;;;21.02;8.43;;;;;;;7.54;95.69;102692.41;6091727;19;20010;-67
2023/04/16 07:19:05;;;;;;;20.08;7.95;;;;;;;7.51;95.61;102689.78;6085566;19;20085;-67
2023/04/16 07:21:21;;;;;;;16.92;8.02;;;;;;;7.54;95.83;102689.78;6096498;19;20046;-68
2023/04/16 07:23:31;;;;;;;16.25;6.85;;;;;;;7.62;95.43;102688.06;6096290;19;20110;-69
2023/04/16 07:25:44;;;;;;;17.25;7.72;;;;;;;7.67;95.58;102691.56;6090782;19;19999;-68
2023/04/16 07:27:59;;;;;;;18.88;8.40;;;;;;;7.63;95.07;102690.66;6101416;19;20442;-69
2023/04/16 07:30:11;;;;;;;16.95;8.10;;;;;;;7.67;95.16;102689.81;6094865;19;20018;-68
2023/04/16 07:32:21;;;;;;;23.35;9.07;;;;;;;7.68;95.36;102690.69;6096820;19;20389;-68
2023/04/16 07:34:38;;;;;;;15.50;7.10;;;;;;;7.70;95.09;102692.44;6100127;19;20011;-68
2023/04/16 07:36:46;;;;;;;18.50;7.45;;;;;;;7.71;94.66;102693.28;6100306;19;20377;-69
2023/04/16 07:38:55;;;;;;;18.23;8.52;;;;;;;7.73;94.75;102694.16;6099043;19;20007;-68
2023/04/16 07:41:03;;;;;;;21.33;9.13;;;;;;;7.69;94.56;102695.94;6094811;19;20500;-70
2023/04/16 07:43:12;;;;;;;28.23;8.23;;;;;;;7.71;94.65;102698.53;6092870;19;20011;-69
2023/04/16 07:45:19;;;;;;;28.20;9.70;;;;;;;7.72;94.81;102697.69;6093251;19;20014;-69
2023/04/16 07:47:31;;;;;;;15.90;7.50;;;;;;;7.77;94.08;102703.78;6097877;19;20019;-67
2023/04/16 07:49:39;;;;;;;16.58;7.25;;;;;;;7.71;93.71;102701.16;6095614;19;20014;-70
2023/04/16 07:51:48;;;;;;;24.13;8.48;;;;;;;7.76;94.19;102706.38;6077059;19;20366;-70
2023/04/16 07:53:55;;;;;;;16.92;7.93;;;;;;;7.82;93.89;102709.91;6086643;19;20081;-69
2023/04/16 07:56:06;;;;;;;21.10;8.55;;;;;;;7.83;93.00;102709.03;6093752;19;20010;-70
2023/04/16 07:58:16;;;;;;;20.45;7.70;;;;;;;7.89;93.50;102714.25;6077593;19;20443;-69
2023/04/16 08:00:22;;;;;;;19.35;8.18;;;;;;;7.93;92.75;102717.75;6077143;19;20443;-70
2023/04/16 08:02:45;;;;;;;18.13;7.68;;;;;;;7.91;93.38;102712.50;6097215;19;20725;-69
2023/04/16 08:05:00;;;;;;;18.23;7.40;;;;;;;7.96;92.98;102714.28;6077876;19;20013;-71
2023/04/16 08:07:22;;;;;;;22.50;9.13;;;;;;;7.89;92.58;102716.88;6089803;19;20106;-70
2023/04/16 08:09:57;;;;;;;24.00;7.22;;;;;;;7.93;92.94;102714.28;6086174;19;20442;-70
2023/04/16 08:12:10;;;;;;;21.33;9.68;;;;;;;7.93;92.76;102719.50;6090064;19;20029;-69
2023/04/16 08:14:17;;;;;;;16.63;7.70;;;;;;;8.03;92.76;102727.38;6095216;19;20014;-71
2023/04/16 08:16:22;;;;;;;20.73;8.13;;;;;;;8.05;93.17;102722.97;6095720;19;20026;-69
2023/04/16 08:18:29;;;;;;;17.10;7.57;;;;;;;8.07;92.45;102721.25;6090999;19;20003;-72
2023/04/16 08:20:37;;;;;;;27.70;8.48;;;;;;;8.08;92.74;102738.72;6093327;19;20473;-70
2023/04/16 08:22:44;;;;;;;21.08;7.43;;;;;;;8.05;92.04;102733.47;6094269;19;20007;-72
2023/04/16 08:24:51;;;;;;;16.88;8.00;;;;;;;8.11;92.46;102730.84;6102062;19;20011;-71
2023/04/16 08:26:56;;;;;;;18.77;9.02;;;;;;;8.15;92.87;102734.34;6100909;19;20031;-71
2023/04/16 08:29:24;;;;;;;23.00;8.00;;;;;;;8.21;92.09;102739.56;6074732;19;20434;-70
2023/04/16 08:31:31;;;;;;;19.05;7.80;;;;;;;8.13;91.69;102734.31;6099267;19;20044;-72
2023/04/16 08:33:36;;;;;;;18.90;8.07;;;;;;;8.20;92.14;102737.84;6093396;19;20011;-72
2023/04/16 08:35:44;;;;;;;21.17;8.25;;;;;;;8.32;91.05;102736.94;6097434;19;20014;-71
2023/04/16 08:37:52;;;;;;;12.13;7.35;;;;;;;8.32;91.03;102737.84;6100119;19;20021;-71
2023/04/16 08:39:57;;;;;;;17.17;7.53;;;;;;;8.34;90.76;102743.94;6098804;19;20010;-71
2023/04/16 08:42:06;;;;;;;16.98;6.75;;;;;;;8.37;90.74;102740.44;6099805;19;19999;-71
2023/04/16 08:44:16;;;;;;;18.83;7.35;;;;;;;8.41;91.06;102741.34;6099611;19;20011;-71
2023/04/16 08:46:26;;;;;;;26.08;8.32;;;;;;;8.38;91.27;102739.56;6099505;19;20021;-71
2023/04/16 08:48:35;;;;;;;17.63;8.50;;;;;;;8.29;91.29;102743.09;6107376;19;20328;-71
2023/04/16 08:50:42;;;;;;;17.83;8.10;;;;;;;8.22;91.50;102746.56;6104442;19;20395;-71
2023/04/16 08:52:53;;;;;;;25.40;9.30;;;;;;;8.30;91.63;102755.28;6101444;19;20421;-70
2023/04/16 08:55:05;;;;;;;16.02;6.82;;;;;;;8.34;91.45;102751.78;6101216;19;20014;-70
2023/04/16 08:57:13;;;;;;;17.27;7.40;;;;;;;8.38;90.97;102757.91;6099914;19;20014;-69
2023/04/16 08:59:18;;;;;;;19.92;7.15;;;;;;;8.41;90.76;102762.31;6099775;19;20045;-70
2023/04/16 09:01:26;;;;;;;18.45;7.88;;;;;;;8.42;90.89;102761.44;6098739;19;20002;-69
2023/04/16 09:03:34;;;;;;;18.10;9.25;;;;;;;8.32;91.47;102756.19;6098964;19;20041;-69
2023/04/16 09:05:41;;;;;;;22.02;8.60;;;;;;;8.49;91.42;102756.19;6095589;19;20033;-69
2023/04/16 09:07:49;;;;;;;18.30;8.50;;;;;;;8.46;91.25;102760.56;6095163;19;20459;-69
2023/04/16 09:09:57;;;;;;;17.05;7.10;;;;;;;8.42;90.99;102754.44;6099828;19;20046;-70
2023/04/16 09:12:02;;;;;;;18.38;8.23;;;;;;;8.42;90.95;102764.91;6098393;19;20010;-69
2023/04/16 09:14:11;;;;;;;24.10;8.50;;;;;;;8.42;90.72;102757.06;6103290;19;20027;-69
2023/04/16 09:16:18;;;;;;;16.30;7.05;;;;;;;8.63;90.99;102764.03;6105799;19;20070;-69
2023/04/16 09:18:23;;;;;;;17.17;6.70;;;;;;;8.52;90.47;102755.31;6106781;19;20011;-69
2023/04/16 09:20:28;;;;;;;18.67;8.07;;;;;;;8.45;91.13;102764.94;6104612;19;20006;-69
2023/04/16 09:22:33;;;;;;;16.52;7.10;;;;;;;8.55;90.75;102758.78;6100972;19;20204;-69
2023/04/16 09:24:40;;;;;;;16.75;7.30;;;;;;;8.52;90.67;102766.66;6098195;19;20021;-69
2023/04/16 09:26:48;;;;;;;16.58;6.55;;;;;;;8.61;90.19;102762.28;6093377;19;20500;-69
2023/04/16 09:28:53;;;;;;;19.77;7.00;;;;;;;8.47;90.03;102757.91;6100031;19;20006;-68
2023/04/16 09:31:10;;;;;;;18.65;7.45;;;;;;;8.60;90.17;102764.03;6105685;19;20037;-68
2023/04/16 09:33:20;;;;;;;15.93;6.63;;;;;;;8.68;90.20;102766.63;6100921;19;20022;-70
2023/04/16 09:35:29;;;;;;;14.88;7.05;;;;;;;8.67;89.49;102764.91;6099888;19;20010;-70
2023/04/16 09:37:34;;;;;;;20.73;7.78;;;;;;;8.74;90.32;102771.84;6100657;19;20388;-76
2023/04/16 09:39:39;;;;;;;34.78;7.65;;;;;;;8.70;89.82;102780.63;6101190;19;20021;-77
2023/04/16 09:41:46;;;;;;;26.10;8.23;;;;;;;8.67;89.87;102778.88;6102652;19;20007;-78
2023/04/16 09:43:58;;;;;;;19.48;7.50;;;;;;;8.51;89.83;102774.53;6102163;19;20010;-77
2023/04/16 09:46:06;;;;;;;19.42;7.40;;;;;;;8.54;90.31;102780.63;6105742;19;20322;-78
2023/04/16 09:48:12;;;;;;;18.67;7.85;;;;;;;8.69;90.32;102778.84;6101560;19;20007;-77
2023/04/16 09:50:49;;;;;;;17.40;8.15;;;;;;;8.57;89.81;102780.63;6102594;19;20101;-71
2023/04/16 09:56:56;;;;;;;;;;;;;;;;;;;;;
2023/04/16 10:09:40;;;;;;;17.88;7.55;;;;;;;8.63;89.85;102795.47;6048560;19;20470;-72
2023/04/16 10:17:40;;;;;;;16.25;7.95;;;;;;;8.64;90.01;102802.47;6036245;19;20499;-70
2023/04/16 10:20:00;;;;;;;23.17;7.80;;;;;;;8.72;89.63;102800.72;6039009;19;20157;-71